sensor_id;sensor_type;location;lat;lon;timestamp;pressure;altitude;pressure_sealevel;temperature
15079;BMP180;6932;51.438;5.470;2023-06-22T00:00:59;101511.00;;;27.50
15079;BMP180;6932;51.438;5.470;2023-06-22T00:03:26;101519.00;;;27.50
15079;BMP180;6932;51.438;5.470;2023-06-22T00:05:53;101508.00;;;27.50
15079;BMP180;6932;51.438;5.470;2023-06-22T00:08:25;101520.00;;;27.40
15079;BMP180;6932;51.438;5.470;2023-06-22T00:10:54;101522.00;;;27.40
15079;BMP180;6932;51.438;5.470;2023-06-22T00:13:19;101530.00;;;27.40
15079;BMP180;6932;51.438;5.470;2023-06-22T00:15:45;101532.00;;;27.30
15079;BMP180;6932;51.438;5.470;2023-06-22T00:18:11;101534.00;;;27.30
15079;BMP180;6932;51.438;5.470;2023-06-22T00:20:39;101539.00;;;27.20
15079;BMP180;6932;51.438;5.470;2023-06-22T00:23:08;101530.00;;;27.20
15079;BMP180;6932;51.438;5.470;2023-06-22T00:25:38;101528.00;;;27.10
15079;BMP180;6932;51.438;5.470;2023-06-22T00:28:06;101524.00;;;27.00
15079;BMP180;6932;51.438;5.470;2023-06-22T00:30:33;101519.00;;;26.90
15079;BMP180;6932;51.438;5.470;2023-06-22T00:33:00;101517.00;;;26.90
15079;BMP180;6932;51.438;5.470;2023-06-22T00:35:27;101514.00;;;26.90
15079;BMP180;6932;51.438;5.470;2023-06-22T00:37:57;101533.00;;;26.80
15079;BMP180;6932;51.438;5.470;2023-06-22T00:40:33;101512.00;;;26.70
15079;BMP180;6932;51.438;5.470;2023-06-22T00:42:59;101512.00;;;26.60
15079;BMP180;6932;51.438;5.470;2023-06-22T00:45:26;101512.00;;;26.60
15079;BMP180;6932;51.438;5.470;2023-06-22T00:47:54;101508.00;;;26.50
15079;BMP180;6932;51.438;5.470;2023-06-22T00:50:23;101503.00;;;26.50
15079;BMP180;6932;51.438;5.470;2023-06-22T00:52:57;101504.00;;;26.40
15079;BMP180;6932;51.438;5.470;2023-06-22T00:55:25;101523.00;;;26.40
15079;BMP180;6932;51.438;5.470;2023-06-22T00:57:54;101508.00;;;26.30
15079;BMP180;6932;51.438;5.470;2023-06-22T01:00:25;101497.00;;;26.30
15079;BMP180;6932;51.438;5.470;2023-06-22T01:02:52;101507.00;;;26.30
15079;BMP180;6932;51.438;5.470;2023-06-22T01:05:20;101505.00;;;26.20
15079;BMP180;6932;51.438;5.470;2023-06-22T01:11:12;101503.00;;;26.10
15079;BMP180;6932;51.438;5.470;2023-06-22T01:16:29;101490.00;;;26.00
15079;BMP180;6932;51.438;5.470;2023-06-22T01:18:59;101507.00;;;25.90
15079;BMP180;6932;51.438;5.470;2023-06-22T01:21:30;101505.00;;;25.90
15079;BMP180;6932;51.438;5.470;2023-06-22T01:24:23;101505.00;;;25.90
15079;BMP180;6932;51.438;5.470;2023-06-22T01:29:57;101512.00;;;25.80
15079;BMP180;6932;51.438;5.470;2023-06-22T01:32:30;101505.00;;;25.80
15079;BMP180;6932;51.438;5.470;2023-06-22T01:35:00;101510.00;;;25.70
15079;BMP180;6932;51.438;5.470;2023-06-22T01:37:28;101507.00;;;25.70
15079;BMP180;6932;51.438;5.470;2023-06-22T01:39:56;101492.00;;;25.70
15079;BMP180;6932;51.438;5.470;2023-06-22T01:42:24;101493.00;;;25.70
15079;BMP180;6932;51.438;5.470;2023-06-22T01:44:53;101482.00;;;25.70
15079;BMP180;6932;51.438;5.470;2023-06-22T01:47:24;101489.00;;;25.70
15079;BMP180;6932;51.438;5.470;2023-06-22T01:49:51;101497.00;;;25.70
15079;BMP180;6932;51.438;5.470;2023-06-22T01:52:20;101492.00;;;25.70
15079;BMP180;6932;51.438;5.470;2023-06-22T01:54:49;101483.00;;;25.60
15079;BMP180;6932;51.438;5.470;2023-06-22T01:57:15;101485.00;;;25.60
15079;BMP180;6932;51.438;5.470;2023-06-22T02:00:07;101500.00;;;25.60
15079;BMP180;6932;51.438;5.470;2023-06-22T02:02:54;101505.00;;;25.60
15079;BMP180;6932;51.438;5.470;2023-06-22T02:05:26;101493.00;;;25.50
15079;BMP180;6932;51.438;5.470;2023-06-22T02:08:11;101496.00;;;25.50
15079;BMP180;6932;51.438;5.470;2023-06-22T02:10:44;101478.00;;;25.50
15079;BMP180;6932;51.438;5.470;2023-06-22T02:13:13;101473.00;;;25.50
15079;BMP180;6932;51.438;5.470;2023-06-22T02:15:40;101481.00;;;25.40
15079;BMP180;6932;51.438;5.470;2023-06-22T02:18:06;101472.00;;;25.50
15079;BMP180;6932;51.438;5.470;2023-06-22T02:20:32;101485.00;;;25.50
15079;BMP180;6932;51.438;5.470;2023-06-22T02:22:58;101473.00;;;25.50
15079;BMP180;6932;51.438;5.470;2023-06-22T02:25:24;101481.00;;;25.50
15079;BMP180;6932;51.438;5.470;2023-06-22T02:27:50;101470.00;;;25.50
15079;BMP180;6932;51.438;5.470;2023-06-22T02:30:16;101466.00;;;25.40
15079;BMP180;6932;51.438;5.470;2023-06-22T02:32:42;101471.00;;;25.50
15079;BMP180;6932;51.438;5.470;2023-06-22T02:35:09;101478.00;;;25.50
15079;BMP180;6932;51.438;5.470;2023-06-22T02:37:37;101469.00;;;25.40
15079;BMP180;6932;51.438;5.470;2023-06-22T02:40:08;101462.00;;;25.50
15079;BMP180;6932;51.438;5.470;2023-06-22T02:42:39;101449.00;;;25.40
15079;BMP180;6932;51.438;5.470;2023-06-22T02:45:06;101461.00;;;25.40
15079;BMP180;6932;51.438;5.470;2023-06-22T02:47:32;101449.00;;;25.40
15079;BMP180;6932;51.438;5.470;2023-06-22T02:49:57;101450.00;;;25.40
15079;BMP180;6932;51.438;5.470;2023-06-22T02:52:23;101454.00;;;25.40
15079;BMP180;6932;51.438;5.470;2023-06-22T02:54:49;101439.00;;;25.40
15079;BMP180;6932;51.438;5.470;2023-06-22T02:57:15;101463.00;;;25.40
15079;BMP180;6932;51.438;5.470;2023-06-22T02:59:41;101468.00;;;25.40
15079;BMP180;6932;51.438;5.470;2023-06-22T03:02:08;101453.00;;;25.30
15079;BMP180;6932;51.438;5.470;2023-06-22T03:04:35;101437.00;;;25.40
15079;BMP180;6932;51.438;5.470;2023-06-22T03:07:02;101440.00;;;25.40
15079;BMP180;6932;51.438;5.470;2023-06-22T03:09:28;101430.00;;;25.30
15079;BMP180;6932;51.438;5.470;2023-06-22T03:11:54;101432.00;;;25.30
15079;BMP180;6932;51.438;5.470;2023-06-22T03:14:20;101430.00;;;25.30
15079;BMP180;6932;51.438;5.470;2023-06-22T03:16:46;101428.00;;;25.30
15079;BMP180;6932;51.438;5.470;2023-06-22T03:19:13;101427.00;;;25.30
15079;BMP180;6932;51.438;5.470;2023-06-22T03:21:40;101425.00;;;25.30
15079;BMP180;6932;51.438;5.470;2023-06-22T03:24:07;101420.00;;;25.20
15079;BMP180;6932;51.438;5.470;2023-06-22T03:26:34;101414.00;;;25.20
15079;BMP180;6932;51.438;5.470;2023-06-22T03:29:00;101412.00;;;25.20
15079;BMP180;6932;51.438;5.470;2023-06-22T03:31:26;101421.00;;;25.20
15079;BMP180;6932;51.438;5.470;2023-06-22T03:33:52;101409.00;;;25.20
15079;BMP180;6932;51.438;5.470;2023-06-22T03:36:18;101417.00;;;25.10
15079;BMP180;6932;51.438;5.470;2023-06-22T03:38:49;101408.00;;;25.10
15079;BMP180;6932;51.438;5.470;2023-06-22T03:41:15;101408.00;;;25.10
15079;BMP180;6932;51.438;5.470;2023-06-22T03:43:41;101412.00;;;25.10
15079;BMP180;6932;51.438;5.470;2023-06-22T03:46:07;101404.00;;;25.10
15079;BMP180;6932;51.438;5.470;2023-06-22T03:48:33;101413.00;;;25.10
15079;BMP180;6932;51.438;5.470;2023-06-22T03:51:02;101401.00;;;25.00
15079;BMP180;6932;51.438;5.470;2023-06-22T03:53:31;101404.00;;;25.00
15079;BMP180;6932;51.438;5.470;2023-06-22T03:55:57;101408.00;;;25.00
15079;BMP180;6932;51.438;5.470;2023-06-22T03:58:23;101413.00;;;25.00
15079;BMP180;6932;51.438;5.470;2023-06-22T04:00:51;101414.00;;;25.00
15079;BMP180;6932;51.438;5.470;2023-06-22T04:03:18;101415.00;;;25.50
15079;BMP180;6932;51.438;5.470;2023-06-22T04:05:45;101411.00;;;25.20
15079;BMP180;6932;51.438;5.470;2023-06-22T04:08:13;101414.00;;;25.20
15079;BMP180;6932;51.438;5.470;2023-06-22T04:10:39;101419.00;;;25.10
15079;BMP180;6932;51.438;5.470;2023-06-22T04:13:05;101410.00;;;25.00
15079;BMP180;6932;51.438;5.470;2023-06-22T04:15:31;101406.00;;;25.00
15079;BMP180;6932;51.438;5.470;2023-06-22T04:17:57;101413.00;;;25.00
15079;BMP180;6932;51.438;5.470;2023-06-22T04:20:23;101412.00;;;25.00
15079;BMP180;6932;51.438;5.470;2023-06-22T04:22:53;101395.00;;;25.00
15079;BMP180;6932;51.438;5.470;2023-06-22T04:25:20;101401.00;;;25.00
15079;BMP180;6932;51.438;5.470;2023-06-22T04:27:46;101394.00;;;25.10
15079;BMP180;6932;51.438;5.470;2023-06-22T04:30:12;101410.00;;;25.10
15079;BMP180;6932;51.438;5.470;2023-06-22T04:32:40;101410.00;;;25.10
15079;BMP180;6932;51.438;5.470;2023-06-22T04:35:07;101405.00;;;25.20
15079;BMP180;6932;51.438;5.470;2023-06-22T04:37:33;101407.00;;;25.20
15079;BMP180;6932;51.438;5.470;2023-06-22T04:39:59;101395.00;;;25.20
15079;BMP180;6932;51.438;5.470;2023-06-22T04:42:28;101399.00;;;25.10
15079;BMP180;6932;51.438;5.470;2023-06-22T04:44:54;101406.00;;;25.10
15079;BMP180;6932;51.438;5.470;2023-06-22T04:47:20;101403.00;;;25.10
15079;BMP180;6932;51.438;5.470;2023-06-22T04:49:46;101398.00;;;25.10
15079;BMP180;6932;51.438;5.470;2023-06-22T04:52:13;101393.00;;;25.10
15079;BMP180;6932;51.438;5.470;2023-06-22T04:54:40;101415.00;;;25.20
15079;BMP180;6932;51.438;5.470;2023-06-22T04:57:13;101388.00;;;25.10
15079;BMP180;6932;51.438;5.470;2023-06-22T04:59:40;101416.00;;;25.20
15079;BMP180;6932;51.438;5.470;2023-06-22T05:02:08;101400.00;;;25.20
15079;BMP180;6932;51.438;5.470;2023-06-22T05:04:35;101401.00;;;25.30
15079;BMP180;6932;51.438;5.470;2023-06-22T05:07:09;101415.00;;;25.30
15079;BMP180;6932;51.438;5.470;2023-06-22T05:09:35;101405.00;;;25.30
15079;BMP180;6932;51.438;5.470;2023-06-22T05:12:02;101401.00;;;25.40
15079;BMP180;6932;51.438;5.470;2023-06-22T05:14:29;101398.00;;;25.40
15079;BMP180;6932;51.438;5.470;2023-06-22T05:16:56;101401.00;;;25.50
15079;BMP180;6932;51.438;5.470;2023-06-22T05:19:25;101387.00;;;25.50
15079;BMP180;6932;51.438;5.470;2023-06-22T05:21:58;101405.00;;;25.50
15079;BMP180;6932;51.438;5.470;2023-06-22T05:24:24;101413.00;;;25.50
15079;BMP180;6932;51.438;5.470;2023-06-22T05:26:50;101398.00;;;25.50
15079;BMP180;6932;51.438;5.470;2023-06-22T05:29:16;101387.00;;;25.50
15079;BMP180;6932;51.438;5.470;2023-06-22T05:31:41;101406.00;;;25.50
15079;BMP180;6932;51.438;5.470;2023-06-22T05:34:07;101401.00;;;25.40
15079;BMP180;6932;51.438;5.470;2023-06-22T05:36:33;101393.00;;;25.50
15079;BMP180;6932;51.438;5.470;2023-06-22T05:38:59;101393.00;;;25.50
15079;BMP180;6932;51.438;5.470;2023-06-22T05:41:24;101397.00;;;25.50
15079;BMP180;6932;51.438;5.470;2023-06-22T05:43:50;101397.00;;;25.50
15079;BMP180;6932;51.438;5.470;2023-06-22T05:46:19;101396.00;;;25.60
15079;BMP180;6932;51.438;5.470;2023-06-22T05:48:45;101396.00;;;25.60
15079;BMP180;6932;51.438;5.470;2023-06-22T05:51:10;101397.00;;;25.70
15079;BMP180;6932;51.438;5.470;2023-06-22T05:53:36;101392.00;;;25.70
15079;BMP180;6932;51.438;5.470;2023-06-22T05:56:02;101393.00;;;25.70
15079;BMP180;6932;51.438;5.470;2023-06-22T05:58:28;101403.00;;;25.70
15079;BMP180;6932;51.438;5.470;2023-06-22T06:00:54;101398.00;;;25.70
15079;BMP180;6932;51.438;5.470;2023-06-22T06:03:20;101392.00;;;25.70
15079;BMP180;6932;51.438;5.470;2023-06-22T06:05:46;101406.00;;;25.70
15079;BMP180;6932;51.438;5.470;2023-06-22T06:08:15;101391.00;;;25.70
15079;BMP180;6932;51.438;5.470;2023-06-22T06:10:41;101395.00;;;25.70
15079;BMP180;6932;51.438;5.470;2023-06-22T06:13:06;101395.00;;;25.70
15079;BMP180;6932;51.438;5.470;2023-06-22T06:15:34;101400.00;;;25.70
15079;BMP180;6932;51.438;5.470;2023-06-22T06:18:00;101405.00;;;25.70
15079;BMP180;6932;51.438;5.470;2023-06-22T06:20:27;101393.00;;;25.70
15079;BMP180;6932;51.438;5.470;2023-06-22T06:22:59;101392.00;;;25.80
15079;BMP180;6932;51.438;5.470;2023-06-22T06:25:37;101410.00;;;25.80
15079;BMP180;6932;51.438;5.470;2023-06-22T06:28:03;101399.00;;;25.80
15079;BMP180;6932;51.438;5.470;2023-06-22T06:30:29;101400.00;;;25.80
15079;BMP180;6932;51.438;5.470;2023-06-22T06:32:54;101391.00;;;25.80
15079;BMP180;6932;51.438;5.470;2023-06-22T06:35:21;101408.00;;;25.80
15079;BMP180;6932;51.438;5.470;2023-06-22T06:37:50;101406.00;;;25.90
15079;BMP180;6932;51.438;5.470;2023-06-22T06:40:18;101399.00;;;25.80
15079;BMP180;6932;51.438;5.470;2023-06-22T06:42:47;101406.00;;;25.80
15079;BMP180;6932;51.438;5.470;2023-06-22T06:45:20;101405.00;;;25.90
15079;BMP180;6932;51.438;5.470;2023-06-22T06:47:48;101401.00;;;25.90
15079;BMP180;6932;51.438;5.470;2023-06-22T06:50:16;101396.00;;;25.90
15079;BMP180;6932;51.438;5.470;2023-06-22T06:52:42;101377.00;;;26.00
15079;BMP180;6932;51.438;5.470;2023-06-22T06:55:09;101384.00;;;26.00
15079;BMP180;6932;51.438;5.470;2023-06-22T06:57:39;101384.00;;;26.00
15079;BMP180;6932;51.438;5.470;2023-06-22T07:00:07;101396.00;;;26.10
15079;BMP180;6932;51.438;5.470;2023-06-22T07:02:42;101405.00;;;26.20
15079;BMP180;6932;51.438;5.470;2023-06-22T07:05:11;101414.00;;;26.20
15079;BMP180;6932;51.438;5.470;2023-06-22T07:07:38;101395.00;;;26.20
15079;BMP180;6932;51.438;5.470;2023-06-22T07:10:06;101415.00;;;26.30
15079;BMP180;6932;51.438;5.470;2023-06-22T07:12:32;101409.00;;;26.40
15079;BMP180;6932;51.438;5.470;2023-06-22T07:15:06;101410.00;;;26.50
15079;BMP180;6932;51.438;5.470;2023-06-22T07:17:37;101403.00;;;26.50
15079;BMP180;6932;51.438;5.470;2023-06-22T07:20:04;101393.00;;;26.60
15079;BMP180;6932;51.438;5.470;2023-06-22T07:22:43;101375.00;;;26.60
15079;BMP180;6932;51.438;5.470;2023-06-22T07:25:10;101379.00;;;26.60
15079;BMP180;6932;51.438;5.470;2023-06-22T07:27:56;101383.00;;;26.70
15079;BMP180;6932;51.438;5.470;2023-06-22T07:30:22;101372.00;;;26.70
15079;BMP180;6932;51.438;5.470;2023-06-22T07:32:48;101374.00;;;26.80
15079;BMP180;6932;51.438;5.470;2023-06-22T07:35:14;101363.00;;;26.90
15079;BMP180;6932;51.438;5.470;2023-06-22T07:37:42;101356.00;;;26.90
15079;BMP180;6932;51.438;5.470;2023-06-22T07:40:09;101359.00;;;27.00
15079;BMP180;6932;51.438;5.470;2023-06-22T07:42:35;101359.00;;;27.00
15079;BMP180;6932;51.438;5.470;2023-06-22T07:45:03;101337.00;;;27.10
15079;BMP180;6932;51.438;5.470;2023-06-22T07:47:29;101330.00;;;27.10
15079;BMP180;6932;51.438;5.470;2023-06-22T07:49:58;101335.00;;;27.20
15079;BMP180;6932;51.438;5.470;2023-06-22T07:52:27;101335.00;;;27.20
15079;BMP180;6932;51.438;5.470;2023-06-22T07:54:53;101318.00;;;27.30
15079;BMP180;6932;51.438;5.470;2023-06-22T07:57:20;101317.00;;;27.30
15079;BMP180;6932;51.438;5.470;2023-06-22T07:59:46;101309.00;;;27.30
15079;BMP180;6932;51.438;5.470;2023-06-22T08:02:12;101295.00;;;27.40
15079;BMP180;6932;51.438;5.470;2023-06-22T08:04:39;101295.00;;;27.40
15079;BMP180;6932;51.438;5.470;2023-06-22T08:07:05;101284.00;;;27.40
15079;BMP180;6932;51.438;5.470;2023-06-22T08:09:32;101277.00;;;27.40
15079;BMP180;6932;51.438;5.470;2023-06-22T08:11:59;101279.00;;;27.40
15079;BMP180;6932;51.438;5.470;2023-06-22T08:14:26;101275.00;;;27.40
15079;BMP180;6932;51.438;5.470;2023-06-22T08:16:52;101285.00;;;27.40
15079;BMP180;6932;51.438;5.470;2023-06-22T08:19:18;101271.00;;;27.40
15079;BMP180;6932;51.438;5.470;2023-06-22T08:21:44;101259.00;;;27.40
15079;BMP180;6932;51.438;5.470;2023-06-22T08:24:10;101276.00;;;27.40
15079;BMP180;6932;51.438;5.470;2023-06-22T08:26:36;101267.00;;;27.30
15079;BMP180;6932;51.438;5.470;2023-06-22T08:29:06;101282.00;;;27.30
15079;BMP180;6932;51.438;5.470;2023-06-22T08:31:32;101288.00;;;27.30
15079;BMP180;6932;51.438;5.470;2023-06-22T08:34:00;101289.00;;;27.30
15079;BMP180;6932;51.438;5.470;2023-06-22T08:36:26;101275.00;;;27.30
15079;BMP180;6932;51.438;5.470;2023-06-22T08:38:54;101282.00;;;27.30
15079;BMP180;6932;51.438;5.470;2023-06-22T08:41:27;101286.00;;;27.30
15079;BMP180;6932;51.438;5.470;2023-06-22T08:43:53;101282.00;;;27.30
15079;BMP180;6932;51.438;5.470;2023-06-22T08:46:19;101272.00;;;27.40
15079;BMP180;6932;51.438;5.470;2023-06-22T08:48:49;101274.00;;;27.40
15079;BMP180;6932;51.438;5.470;2023-06-22T08:51:16;101280.00;;;27.40
15079;BMP180;6932;51.438;5.470;2023-06-22T08:53:42;101288.00;;;27.40
15079;BMP180;6932;51.438;5.470;2023-06-22T08:56:10;101272.00;;;27.50
15079;BMP180;6932;51.438;5.470;2023-06-22T08:58:36;101268.00;;;27.50
15079;BMP180;6932;51.438;5.470;2023-06-22T09:01:02;101264.00;;;27.50
15079;BMP180;6932;51.438;5.470;2023-06-22T09:03:28;101260.00;;;27.50
15079;BMP180;6932;51.438;5.470;2023-06-22T09:05:53;101269.00;;;27.60
15079;BMP180;6932;51.438;5.470;2023-06-22T09:08:19;101271.00;;;27.60
15079;BMP180;6932;51.438;5.470;2023-06-22T09:10:45;101265.00;;;27.60
15079;BMP180;6932;51.438;5.470;2023-06-22T09:13:11;101257.00;;;27.60
15079;BMP180;6932;51.438;5.470;2023-06-22T09:15:37;101256.00;;;27.60
15079;BMP180;6932;51.438;5.470;2023-06-22T09:18:03;101253.00;;;27.60
15079;BMP180;6932;51.438;5.470;2023-06-22T09:20:29;101256.00;;;27.60
15079;BMP180;6932;51.438;5.470;2023-06-22T09:22:55;101253.00;;;27.60
15079;BMP180;6932;51.438;5.470;2023-06-22T09:25:21;101259.00;;;27.70
15079;BMP180;6932;51.438;5.470;2023-06-22T09:27:47;101246.00;;;27.70
15079;BMP180;6932;51.438;5.470;2023-06-22T09:30:13;101247.00;;;27.70
15079;BMP180;6932;51.438;5.470;2023-06-22T09:32:42;101240.00;;;27.70
15079;BMP180;6932;51.438;5.470;2023-06-22T09:35:09;101252.00;;;27.70
15079;BMP180;6932;51.438;5.470;2023-06-22T09:37:36;101247.00;;;27.80
15079;BMP180;6932;51.438;5.470;2023-06-22T09:47:17;101253.00;;;27.80
15079;BMP180;6932;51.438;5.470;2023-06-22T09:50:14;101255.00;;;27.80
15079;BMP180;6932;51.438;5.470;2023-06-22T09:52:58;101245.00;;;27.80
15079;BMP180;6932;51.438;5.470;2023-06-22T09:55:24;101240.00;;;27.90
15079;BMP180;6932;51.438;5.470;2023-06-22T09:57:50;101234.00;;;27.90
15079;BMP180;6932;51.438;5.470;2023-06-22T10:00:17;101230.00;;;27.90
15079;BMP180;6932;51.438;5.470;2023-06-22T10:02:46;101230.00;;;27.90
15079;BMP180;6932;51.438;5.470;2023-06-22T10:05:12;101224.00;;;27.90
15079;BMP180;6932;51.438;5.470;2023-06-22T10:07:41;101242.00;;;28.00
15079;BMP180;6932;51.438;5.470;2023-06-22T10:10:27;101241.00;;;27.90
15079;BMP180;6932;51.438;5.470;2023-06-22T10:13:13;101237.00;;;28.00
15079;BMP180;6932;51.438;5.470;2023-06-22T10:15:41;101239.00;;;28.00
15079;BMP180;6932;51.438;5.470;2023-06-22T10:18:07;101240.00;;;28.00
15079;BMP180;6932;51.438;5.470;2023-06-22T10:20:33;101236.00;;;28.00
15079;BMP180;6932;51.438;5.470;2023-06-22T10:22:59;101245.00;;;28.10
15079;BMP180;6932;51.438;5.470;2023-06-22T10:25:25;101238.00;;;28.10
15079;BMP180;6932;51.438;5.470;2023-06-22T10:27:51;101256.00;;;28.10
15079;BMP180;6932;51.438;5.470;2023-06-22T10:30:17;101246.00;;;28.10
15079;BMP180;6932;51.438;5.470;2023-06-22T10:32:43;101251.00;;;28.10
15079;BMP180;6932;51.438;5.470;2023-06-22T10:35:09;101261.00;;;28.10
15079;BMP180;6932;51.438;5.470;2023-06-22T10:37:45;101272.00;;;28.10
15079;BMP180;6932;51.438;5.470;2023-06-22T10:40:15;101283.00;;;28.10
15079;BMP180;6932;51.438;5.470;2023-06-22T10:42:41;101278.00;;;28.00
15079;BMP180;6932;51.438;5.470;2023-06-22T10:45:08;101277.00;;;28.00
15079;BMP180;6932;51.438;5.470;2023-06-22T10:47:35;101282.00;;;28.00
15079;BMP180;6932;51.438;5.470;2023-06-22T10:50:02;101290.00;;;28.00
15079;BMP180;6932;51.438;5.470;2023-06-22T10:52:28;101275.00;;;28.00
15079;BMP180;6932;51.438;5.470;2023-06-22T10:54:54;101286.00;;;28.00
15079;BMP180;6932;51.438;5.470;2023-06-22T10:57:21;101283.00;;;28.00
15079;BMP180;6932;51.438;5.470;2023-06-22T10:59:47;101295.00;;;27.90
15079;BMP180;6932;51.438;5.470;2023-06-22T11:02:12;101302.00;;;27.90
15079;BMP180;6932;51.438;5.470;2023-06-22T11:04:38;101291.00;;;27.80
15079;BMP180;6932;51.438;5.470;2023-06-22T11:07:05;101278.00;;;27.80
15079;BMP180;6932;51.438;5.470;2023-06-22T11:09:31;101290.00;;;27.70
15079;BMP180;6932;51.438;5.470;2023-06-22T11:11:57;101308.00;;;27.60
15079;BMP180;6932;51.438;5.470;2023-06-22T11:14:25;101295.00;;;27.50
15079;BMP180;6932;51.438;5.470;2023-06-22T11:16:51;101300.00;;;27.50
15079;BMP180;6932;51.438;5.470;2023-06-22T11:19:18;101303.00;;;27.40
15079;BMP180;6932;51.438;5.470;2023-06-22T11:21:44;101300.00;;;27.30
15079;BMP180;6932;51.438;5.470;2023-06-22T11:24:10;101297.00;;;27.10
15079;BMP180;6932;51.438;5.470;2023-06-22T11:26:36;101308.00;;;27.10
15079;BMP180;6932;51.438;5.470;2023-06-22T11:29:02;101325.00;;;27.00
15079;BMP180;6932;51.438;5.470;2023-06-22T11:31:34;101316.00;;;27.00
15079;BMP180;6932;51.438;5.470;2023-06-22T11:34:01;101290.00;;;26.80
15079;BMP180;6932;51.438;5.470;2023-06-22T11:36:28;101264.00;;;26.70
15079;BMP180;6932;51.438;5.470;2023-06-22T11:39:17;101255.00;;;26.70
15079;BMP180;6932;51.438;5.470;2023-06-22T11:41:43;101255.00;;;26.50
15079;BMP180;6932;51.438;5.470;2023-06-22T11:44:09;101234.00;;;26.40
15079;BMP180;6932;51.438;5.470;2023-06-22T11:46:34;101241.00;;;26.40
15079;BMP180;6932;51.438;5.470;2023-06-22T11:49:01;101238.00;;;26.30
15079;BMP180;6932;51.438;5.470;2023-06-22T11:51:27;101233.00;;;26.30
15079;BMP180;6932;51.438;5.470;2023-06-22T11:53:54;101241.00;;;26.20
15079;BMP180;6932;51.438;5.470;2023-06-22T11:56:19;101231.00;;;26.10
15079;BMP180;6932;51.438;5.470;2023-06-22T11:58:45;101224.00;;;26.10
15079;BMP180;6932;51.438;5.470;2023-06-22T12:01:11;101213.00;;;26.10
15079;BMP180;6932;51.438;5.470;2023-06-22T12:03:41;101198.00;;;26.00
15079;BMP180;6932;51.438;5.470;2023-06-22T12:06:09;101207.00;;;26.00
15079;BMP180;6932;51.438;5.470;2023-06-22T12:08:34;101216.00;;;26.00
15079;BMP180;6932;51.438;5.470;2023-06-22T12:11:00;101231.00;;;26.00
15079;BMP180;6932;51.438;5.470;2023-06-22T12:13:26;101224.00;;;25.90
15079;BMP180;6932;51.438;5.470;2023-06-22T12:15:52;101206.00;;;25.90
15079;BMP180;6932;51.438;5.470;2023-06-22T12:18:18;101198.00;;;25.80
15079;BMP180;6932;51.438;5.470;2023-06-22T12:20:46;101191.00;;;25.80
15079;BMP180;6932;51.438;5.470;2023-06-22T12:23:12;101191.00;;;25.80
15079;BMP180;6932;51.438;5.470;2023-06-22T12:25:41;101186.00;;;25.70
15079;BMP180;6932;51.438;5.470;2023-06-22T12:28:10;101170.00;;;25.70
15079;BMP180;6932;51.438;5.470;2023-06-22T12:30:36;101178.00;;;25.70
15079;BMP180;6932;51.438;5.470;2023-06-22T12:33:02;101195.00;;;25.70
15079;BMP180;6932;51.438;5.470;2023-06-22T12:35:28;101182.00;;;25.60
15079;BMP180;6932;51.438;5.470;2023-06-22T12:37:54;101170.00;;;25.60
15079;BMP180;6932;51.438;5.470;2023-06-22T12:40:25;101176.00;;;25.60
15079;BMP180;6932;51.438;5.470;2023-06-22T12:42:51;101173.00;;;25.60
15079;BMP180;6932;51.438;5.470;2023-06-22T12:45:23;101188.00;;;25.50
15079;BMP180;6932;51.438;5.470;2023-06-22T12:48:22;101180.00;;;25.50
15079;BMP180;6932;51.438;5.470;2023-06-22T12:50:48;101173.00;;;25.50
15079;BMP180;6932;51.438;5.470;2023-06-22T12:53:14;101166.00;;;25.50
15079;BMP180;6932;51.438;5.470;2023-06-22T12:55:43;101161.00;;;25.50
15079;BMP180;6932;51.438;5.470;2023-06-22T12:58:08;101162.00;;;25.40
15079;BMP180;6932;51.438;5.470;2023-06-22T13:00:38;101169.00;;;25.40
15079;BMP180;6932;51.438;5.470;2023-06-22T13:03:04;101158.00;;;25.40
15079;BMP180;6932;51.438;5.470;2023-06-22T13:05:35;101165.00;;;25.40
15079;BMP180;6932;51.438;5.470;2023-06-22T13:08:01;101163.00;;;25.40
15079;BMP180;6932;51.438;5.470;2023-06-22T13:10:27;101153.00;;;25.40
15079;BMP180;6932;51.438;5.470;2023-06-22T13:12:53;101141.00;;;25.30
15079;BMP180;6932;51.438;5.470;2023-06-22T13:15:28;101133.00;;;25.30
15079;BMP180;6932;51.438;5.470;2023-06-22T13:17:57;101132.00;;;25.30
15079;BMP180;6932;51.438;5.470;2023-06-22T13:20:25;101125.00;;;25.20
15079;BMP180;6932;51.438;5.470;2023-06-22T13:22:51;101123.00;;;25.30
15079;BMP180;6932;51.438;5.470;2023-06-22T13:25:27;101116.00;;;25.30
15079;BMP180;6932;51.438;5.470;2023-06-22T13:27:53;101112.00;;;25.30
15079;BMP180;6932;51.438;5.470;2023-06-22T13:30:26;101103.00;;;25.30
15079;BMP180;6932;51.438;5.470;2023-06-22T13:33:03;101090.00;;;25.20
15079;BMP180;6932;51.438;5.470;2023-06-22T13:35:35;101089.00;;;25.20
15079;BMP180;6932;51.438;5.470;2023-06-22T13:38:11;101095.00;;;25.20
15079;BMP180;6932;51.438;5.470;2023-06-22T13:40:55;101103.00;;;25.20
15079;BMP180;6932;51.438;5.470;2023-06-22T13:43:34;101088.00;;;25.20
15079;BMP180;6932;51.438;5.470;2023-06-22T13:46:00;101099.00;;;25.20
15079;BMP180;6932;51.438;5.470;2023-06-22T13:48:33;101102.00;;;25.20
15079;BMP180;6932;51.438;5.470;2023-06-22T13:50:59;101112.00;;;25.10
15079;BMP180;6932;51.438;5.470;2023-06-22T13:53:25;101101.00;;;25.10
15079;BMP180;6932;51.438;5.470;2023-06-22T13:55:52;101096.00;;;25.10
15079;BMP180;6932;51.438;5.470;2023-06-22T13:58:20;101105.00;;;25.10
15079;BMP180;6932;51.438;5.470;2023-06-22T14:00:46;101106.00;;;25.00
15079;BMP180;6932;51.438;5.470;2023-06-22T14:03:17;101108.00;;;25.00
15079;BMP180;6932;51.438;5.470;2023-06-22T14:06:10;101086.00;;;25.00
15079;BMP180;6932;51.438;5.470;2023-06-22T14:08:45;101100.00;;;25.00
15079;BMP180;6932;51.438;5.470;2023-06-22T14:11:30;101092.00;;;24.90
15079;BMP180;6932;51.438;5.470;2023-06-22T14:14:07;101088.00;;;24.90
15079;BMP180;6932;51.438;5.470;2023-06-22T14:16:45;101092.00;;;24.90
15079;BMP180;6932;51.438;5.470;2023-06-22T14:19:17;101083.00;;;24.90
15079;BMP180;6932;51.438;5.470;2023-06-22T14:22:59;101078.00;;;24.80
15079;BMP180;6932;51.438;5.470;2023-06-22T14:29:05;101073.00;;;24.80
15079;BMP180;6932;51.438;5.470;2023-06-22T14:32:43;101079.00;;;24.70
15079;BMP180;6932;51.438;5.470;2023-06-22T14:35:36;101067.00;;;24.70
15079;BMP180;6932;51.438;5.470;2023-06-22T14:38:36;101074.00;;;24.70